createdAt,value
2022-10-17T00:00:42.130Z,419.55
2022-10-17T00:03:09.658Z,422.58
2022-10-17T00:05:41.120Z,420.67
2022-10-17T00:08:08.084Z,417.25
2022-10-17T00:10:35.062Z,416.48
2022-10-17T00:13:01.771Z,417.90
2022-10-17T00:15:28.326Z,413.73
2022-10-17T00:17:55.002Z,405.30
2022-10-17T00:20:21.646Z,401.65
2022-10-17T00:22:48.217Z,407.65
2022-10-17T00:25:14.925Z,410.13
2022-10-17T00:27:42.583Z,409.23
2022-10-17T00:30:14.191Z,399.17
2022-10-17T00:32:41.727Z,410.92
2022-10-17T00:35:09.131Z,405.27
2022-10-17T00:37:35.729Z,412.13
2022-10-17T00:40:03.000Z,416.90
2022-10-17T00:42:30.036Z,418.23
2022-10-17T00:45:18.206Z,427.38
2022-10-17T00:47:50.231Z,423.23
2022-10-17T00:50:18.121Z,429.50
2022-10-17T00:52:47.012Z,428.77
2022-10-17T00:55:22.862Z,433.92
2022-10-17T00:57:50.379Z,432.00
2022-10-17T01:00:19.932Z,438.63
2022-10-17T01:02:46.784Z,432.08
2022-10-17T01:05:15.654Z,429.00
2022-10-17T01:07:44.181Z,426.25
2022-10-17T01:10:11.979Z,426.50
2022-10-17T01:12:58.792Z,431.45
2022-10-17T01:16:02.277Z,442.20
2022-10-17T01:18:31.765Z,438.27
2022-10-17T01:21:03.419Z,436.40
2022-10-17T01:23:33.375Z,442.00
2022-10-17T01:26:21.525Z,448.55
2022-10-17T01:29:28.509Z,453.87
2022-10-17T01:32:07.368Z,437.05
2022-10-17T01:34:37.687Z,435.23
2022-10-17T01:37:28.549Z,440.35
2022-10-17T01:39:58.534Z,440.67
2022-10-17T01:42:37.133Z,438.55
2022-10-17T01:45:18.029Z,434.00
2022-10-17T01:47:47.867Z,435.42
2022-10-17T01:50:21.303Z,436.65
2022-10-17T01:53:12.424Z,449.63
2022-10-17T01:55:43.759Z,456.88
2022-10-17T01:58:17.131Z,452.50
2022-10-17T02:00:46.602Z,452.85
2022-10-17T02:03:18.867Z,457.60
2022-10-17T02:05:45.866Z,456.33
2022-10-17T02:08:13.095Z,446.00
2022-10-17T02:10:54.307Z,444.65
2022-10-17T02:13:32.930Z,436.27
2022-10-17T02:16:13.301Z,439.08
2022-10-17T02:19:23.578Z,451.17
2022-10-17T02:22:21.149Z,446.00
2022-10-17T02:24:58.743Z,443.23
2022-10-17T02:27:56.379Z,441.35
2022-10-17T02:30:47.042Z,442.90
2022-10-17T02:33:38.173Z,444.58
2022-10-17T02:36:14.978Z,430.38
2022-10-17T02:38:44.338Z,439.00
2022-10-17T02:41:15.714Z,442.10
2022-10-17T02:43:45.464Z,446.65
2022-10-17T02:46:20.767Z,454.00
2022-10-17T02:48:53.301Z,455.17
2022-10-17T02:52:01.203Z,455.23
2022-10-17T02:54:42.815Z,445.57
2022-10-17T02:57:18.844Z,457.48
2022-10-17T02:59:46.813Z,454.67
2022-10-17T03:02:13.469Z,472.25
2022-10-17T03:04:46.618Z,479.35
2022-10-17T03:07:13.578Z,475.58
2022-10-17T03:09:40.123Z,467.60
2022-10-17T03:12:06.691Z,476.40
2022-10-17T03:14:33.993Z,475.65
2022-10-17T03:17:00.989Z,471.45
2022-10-17T03:19:27.662Z,474.98
2022-10-17T03:21:54.301Z,479.67
2022-10-17T03:24:21.721Z,479.05
2022-10-17T03:26:48.340Z,471.42
2022-10-17T03:29:15.048Z,474.27
2022-10-17T03:31:41.994Z,467.00
2022-10-17T03:34:09.927Z,463.25
2022-10-17T03:36:36.762Z,468.95
2022-10-17T03:39:04.032Z,467.58
2022-10-17T03:41:31.127Z,465.83
2022-10-17T03:43:58.144Z,459.60
2022-10-17T03:46:25.240Z,466.87
2022-10-17T03:48:52.462Z,467.73
2022-10-17T03:51:19.402Z,470.25
2022-10-17T03:53:51.154Z,468.80
2022-10-17T03:56:21.066Z,466.33
2022-10-17T03:58:56.552Z,469.70
2022-10-17T04:01:23.921Z,467.55
2022-10-17T04:03:52.713Z,417.02
2022-10-17T04:06:20.345Z,439.27
2022-10-17T04:08:47.593Z,455.08
2022-10-17T04:11:21.518Z,459.47
2022-10-17T04:13:53.975Z,448.40
2022-10-17T04:16:20.928Z,437.85
2022-10-17T04:18:59.860Z,424.52
2022-10-17T04:21:30.424Z,423.33
2022-10-17T04:24:01.359Z,428.70
2022-10-17T04:26:51.300Z,417.10
2022-10-17T04:29:19.332Z,422.17
2022-10-17T04:31:49.863Z,413.92
2022-10-17T04:34:30.180Z,421.65
2022-10-17T04:36:57.198Z,417.42
2022-10-17T04:39:23.935Z,416.63
2022-10-17T04:41:51.107Z,426.02
2022-10-17T04:44:18.059Z,424.10
2022-10-17T04:46:50.737Z,436.90
2022-10-17T04:49:17.419Z,440.63
2022-10-17T04:51:47.345Z,420.10
2022-10-17T04:54:20.811Z,415.90
2022-10-17T04:56:52.898Z,422.80
2022-10-17T04:59:19.674Z,424.42
2022-10-17T05:01:49.775Z,413.63
2022-10-17T05:04:21.099Z,402.13
2022-10-17T05:06:50.649Z,379.85
2022-10-17T05:09:37.393Z,396.00
2022-10-17T05:12:06.753Z,406.95
2022-10-17T05:14:37.609Z,404.17
2022-10-17T05:17:05.053Z,417.47
2022-10-17T05:19:31.696Z,400.55
2022-10-17T05:21:59.129Z,392.73
2022-10-17T05:24:25.745Z,397.02
2022-10-17T05:26:53.239Z,399.67
2022-10-17T05:29:20.030Z,400.83
2022-10-17T05:31:52.109Z,400.15
2022-10-17T05:34:19.543Z,404.38
2022-10-17T05:36:46.298Z,422.17
2022-10-17T05:39:19.453Z,401.88
2022-10-17T05:41:47.583Z,399.35
2022-10-17T05:44:14.255Z,389.42
2022-10-17T05:46:45.089Z,397.67
2022-10-17T05:49:19.675Z,393.47
2022-10-17T05:51:52.457Z,395.65
2022-10-17T05:54:19.209Z,400.77
2022-10-17T05:56:45.846Z,410.63
2022-10-17T05:59:12.444Z,400.85
2022-10-17T06:01:48.359Z,407.90
2022-10-17T06:04:21.111Z,396.43
2022-10-17T06:06:47.741Z,386.75
2022-10-17T06:09:14.348Z,389.15
2022-10-17T06:11:46.142Z,384.88
2022-10-17T06:14:12.942Z,393.55
2022-10-17T06:16:41.069Z,378.67
2022-10-17T06:19:07.932Z,378.05
2022-10-17T06:21:36.634Z,365.80
2022-10-17T06:24:10.639Z,370.67
2022-10-17T06:26:40.646Z,376.85
2022-10-17T06:29:08.743Z,385.08
2022-10-17T06:31:41.542Z,381.15
2022-10-17T06:34:08.269Z,389.38
2022-10-17T06:36:35.389Z,385.25
2022-10-17T06:39:02.355Z,404.73
2022-10-17T06:41:35.860Z,393.00
2022-10-17T06:44:10.995Z,384.02
2022-10-17T06:46:46.926Z,383.87
2022-10-17T06:49:16.579Z,388.00
2022-10-17T06:52:17.423Z,379.45
2022-10-17T06:54:58.249Z,379.35
2022-10-17T06:57:41.851Z,379.30
2022-10-17T07:00:28.331Z,377.58
2022-10-17T07:02:56.946Z,383.63
2022-10-17T07:05:23.668Z,382.27
2022-10-17T07:07:51.851Z,386.05
2022-10-17T07:10:19.030Z,382.63
2022-10-17T07:12:45.913Z,385.20
2022-10-17T07:15:12.848Z,389.55
2022-10-17T07:17:39.561Z,384.88
2022-10-17T07:20:06.723Z,392.13
2022-10-17T07:22:35.418Z,378.43
2022-10-17T07:25:02.068Z,374.85
2022-10-17T07:27:44.664Z,376.48
2022-10-17T07:30:11.871Z,370.85
2022-10-17T07:32:40.847Z,373.27
2022-10-17T07:35:10.130Z,362.20
2022-10-17T07:37:37.182Z,362.55
2022-10-17T07:40:07.162Z,357.80
2022-10-17T07:42:36.658Z,362.95
2022-10-17T07:45:05.029Z,372.33
2022-10-17T07:47:35.557Z,359.23
2022-10-17T07:50:04.183Z,358.55
2022-10-17T07:52:31.302Z,361.90
2022-10-17T07:54:58.111Z,359.75
2022-10-17T07:57:24.863Z,355.15
2022-10-17T07:59:51.523Z,352.63
2022-10-17T08:02:26.090Z,344.13
2022-10-17T08:04:53.182Z,351.52
2022-10-17T08:07:24.159Z,356.67
2022-10-17T08:09:53.610Z,361.80
2022-10-17T08:12:20.403Z,382.35
2022-10-17T08:14:48.106Z,376.20
2022-10-17T08:17:14.699Z,371.30
2022-10-17T08:19:41.336Z,368.23
2022-10-17T08:22:08.294Z,369.10
2022-10-17T08:24:35.101Z,362.17
2022-10-17T08:27:02.120Z,372.50
2022-10-17T08:29:28.841Z,367.42
2022-10-17T08:32:00.960Z,375.93
2022-10-17T08:34:28.187Z,387.13
2022-10-17T08:36:54.779Z,389.20
2022-10-17T08:39:21.389Z,360.90
2022-10-17T08:41:54.153Z,359.47
2022-10-17T08:44:39.336Z,357.63
2022-10-17T08:47:14.913Z,353.65
2022-10-17T08:49:52.474Z,356.60
2022-10-17T08:52:29.554Z,359.23
2022-10-17T08:54:56.548Z,356.57
2022-10-17T08:57:23.209Z,342.98
2022-10-17T08:59:52.595Z,337.75
2022-10-17T09:02:33.325Z,326.42
2022-10-17T09:05:25.479Z,303.83
2022-10-17T09:08:00.676Z,303.55
2022-10-17T09:10:33.430Z,298.33
2022-10-17T09:13:08.875Z,305.08
2022-10-17T09:16:04.005Z,294.80
2022-10-17T09:18:39.613Z,290.85
2022-10-17T09:21:40.309Z,290.42
2022-10-17T09:24:16.020Z,288.27
2022-10-17T09:26:45.447Z,278.63
2022-10-17T09:29:20.544Z,276.95
2022-10-17T09:32:15.481Z,270.83
2022-10-17T09:34:42.149Z,269.47
2022-10-17T09:37:14.596Z,276.75
2022-10-17T09:39:43.354Z,266.58
2022-10-17T09:42:15.141Z,263.38
2022-10-17T09:45:02.564Z,242.95
2022-10-17T09:47:59.508Z,246.90
2022-10-17T09:50:31.405Z,246.35
2022-10-17T09:53:21.966Z,250.15
2022-10-17T09:55:56.286Z,259.75
2022-10-17T09:58:23.597Z,250.43
2022-10-17T10:00:50.291Z,232.50
2022-10-17T10:03:25.466Z,240.25
2022-10-17T10:06:16.658Z,231.18
2022-10-17T10:08:55.117Z,241.25
2022-10-17T10:11:47.076Z,249.77
2022-10-17T10:14:20.386Z,238.95
2022-10-17T10:16:48.339Z,244.23
2022-10-17T10:19:32.102Z,241.40
2022-10-17T10:22:01.325Z,247.15
2022-10-17T10:24:30.996Z,250.82
2022-10-17T10:27:01.627Z,257.40
2022-10-17T10:29:31.301Z,262.90
2022-10-17T10:32:09.003Z,250.55
2022-10-17T10:34:37.166Z,246.63
2022-10-17T10:37:16.232Z,255.88
2022-10-17T10:39:51.914Z,264.23
2022-10-17T10:42:42.314Z,274.23
2022-10-17T10:45:23.716Z,303.30
2022-10-17T10:48:20.538Z,306.70
2022-10-17T10:51:01.692Z,319.02
2022-10-17T10:53:35.891Z,306.02
2022-10-17T10:56:25.814Z,317.02
2022-10-17T10:59:04.664Z,301.35
2022-10-17T11:01:34.111Z,288.15
2022-10-17T11:04:25.561Z,287.60
2022-10-17T11:06:58.853Z,295.13
2022-10-17T11:09:58.769Z,291.85
2022-10-17T11:12:31.505Z,305.00
2022-10-17T11:15:17.103Z,286.58
2022-10-17T11:18:30.297Z,285.23
2022-10-17T11:21:05.254Z,285.33
2022-10-17T11:23:51.977Z,297.42
2022-10-17T11:26:26.925Z,279.80
2022-10-17T11:28:54.955Z,289.77
2022-10-17T11:31:25.700Z,286.07
2022-10-17T11:34:00.406Z,294.45
2022-10-17T11:36:31.671Z,291.25
2022-10-17T11:39:30.053Z,289.87
2022-10-17T11:42:06.979Z,289.13
2022-10-17T11:44:41.369Z,276.50
2022-10-17T11:47:35.892Z,271.83
2022-10-17T11:53:15.930Z,265.60
2022-10-17T11:55:44.598Z,254.07
2022-10-17T11:58:11.137Z,255.75
2022-10-17T12:00:55.859Z,260.52
2022-10-17T12:03:51.837Z,249.63
2022-10-17T12:06:53.774Z,245.43
2022-10-17T12:09:29.300Z,253.52
2022-10-17T12:12:02.442Z,247.80
2022-10-17T12:14:39.612Z,232.00
2022-10-17T12:17:25.328Z,224.73
2022-10-17T12:19:51.965Z,227.82
2022-10-17T12:22:23.142Z,225.23
2022-10-17T12:25:04.030Z,216.27
2022-10-17T12:27:32.847Z,213.82
2022-10-17T12:30:07.005Z,193.23
2022-10-17T12:33:03.758Z,194.25
2022-10-17T12:35:23.572Z,174.85
2022-10-17T12:37:55.227Z,165.60
2022-10-17T12:40:36.147Z,166.05
2022-10-17T12:43:28.174Z,179.13
2022-10-17T12:45:54.842Z,198.57
2022-10-17T12:48:33.817Z,226.63
2022-10-17T12:51:30.859Z,255.68
2022-10-17T12:53:59.228Z,281.53
2022-10-17T12:56:37.573Z,303.92
2022-10-17T12:59:27.686Z,307.05
2022-10-17T13:02:00.013Z,316.23
2022-10-17T13:04:28.500Z,322.83
2022-10-17T13:06:58.685Z,338.63
2022-10-17T13:09:31.403Z,337.65
2022-10-17T13:12:01.447Z,330.90
2022-10-17T13:14:29.168Z,324.33
2022-10-17T13:16:57.523Z,334.13
2022-10-17T13:19:30.571Z,332.88
2022-10-17T13:22:06.695Z,331.27
2022-10-17T13:24:39.024Z,346.20
2022-10-17T13:27:21.428Z,349.17
2022-10-17T13:29:48.161Z,351.95
2022-10-17T13:32:14.720Z,356.75
2022-10-17T13:34:41.498Z,369.80
2022-10-17T13:37:13.385Z,374.58
2022-10-17T13:39:55.233Z,365.67
2022-10-17T13:42:31.281Z,375.08
2022-10-17T13:44:59.472Z,381.33
2022-10-17T13:47:29.614Z,373.75
2022-10-17T13:49:57.783Z,372.30
2022-10-17T13:52:30.422Z,368.73
2022-10-17T13:55:17.458Z,372.88
2022-10-17T13:57:44.451Z,373.02
2022-10-17T14:00:19.657Z,389.38
2022-10-17T14:02:46.866Z,387.23
2022-10-17T14:05:18.632Z,396.38
2022-10-17T14:08:10.630Z,384.17
2022-10-17T14:10:40.677Z,389.52
2022-10-17T14:13:19.132Z,393.52
2022-10-17T14:15:46.574Z,378.45
2022-10-17T14:18:34.905Z,394.65
2022-10-17T14:23:53.069Z,409.23
2022-10-17T14:26:22.091Z,403.17
2022-10-17T14:29:12.792Z,398.27
2022-10-17T14:31:40.078Z,389.83
2022-10-17T14:34:06.705Z,390.97
2022-10-17T14:36:37.806Z,403.15
2022-10-17T14:39:11.867Z,400.30
2022-10-17T14:41:45.276Z,401.42
2022-10-17T14:44:31.847Z,374.13
2022-10-17T14:47:30.791Z,381.83
2022-10-17T14:50:23.680Z,394.83
2022-10-17T14:53:02.238Z,399.25
2022-10-17T14:55:31.395Z,383.50
2022-10-17T14:57:57.989Z,385.52
2022-10-17T15:00:25.633Z,408.52
2022-10-17T15:02:53.969Z,400.43
2022-10-17T15:05:23.053Z,391.85
2022-10-17T15:07:50.047Z,384.40
2022-10-17T15:10:33.025Z,371.73
2022-10-17T15:13:26.087Z,375.67
2022-10-17T15:15:52.025Z,373.92
2022-10-17T15:18:19.206Z,349.33
2022-10-17T15:20:45.842Z,349.45
2022-10-17T15:23:12.590Z,358.80
2022-10-17T15:25:39.474Z,360.23
2022-10-17T15:28:06.391Z,370.77
2022-10-17T15:30:36.348Z,368.40
2022-10-17T15:33:03.117Z,364.73
2022-10-17T15:35:30.280Z,374.50
2022-10-17T15:37:56.953Z,355.33
2022-10-17T15:40:28.749Z,348.95
2022-10-17T15:42:56.435Z,367.65
2022-10-17T15:45:23.621Z,362.60
2022-10-17T15:47:57.166Z,354.35
2022-10-17T15:50:23.839Z,363.60
2022-10-17T15:52:51.071Z,370.00
2022-10-17T15:55:18.623Z,368.20
2022-10-17T15:57:47.493Z,381.83
2022-10-17T16:00:22.980Z,377.67
2022-10-17T16:02:50.325Z,387.52
2022-10-17T16:05:23.030Z,395.00
2022-10-17T16:07:50.091Z,388.65
2022-10-17T16:10:17.096Z,375.05
2022-10-17T16:12:44.538Z,369.77
2022-10-17T16:15:17.149Z,391.77
2022-10-17T16:17:44.374Z,384.90
2022-10-17T16:20:12.651Z,361.92
2022-10-17T16:22:42.064Z,377.95
2022-10-17T16:25:24.992Z,364.02
2022-10-17T16:27:54.298Z,345.58
2022-10-17T16:32:49.361Z,355.90
2022-10-17T16:35:25.499Z,352.77
2022-10-17T16:37:52.281Z,341.55
2022-10-17T16:40:19.021Z,338.73
2022-10-17T16:42:45.765Z,335.58
2022-10-17T16:45:18.549Z,341.10
2022-10-17T16:47:45.709Z,331.90
2022-10-17T16:50:13.344Z,322.63
2022-10-17T16:52:39.965Z,323.98
2022-10-17T16:55:08.860Z,303.43
2022-10-17T17:00:12.974Z,321.60
2022-10-17T17:02:41.964Z,316.38
2022-10-17T17:05:08.839Z,312.58
2022-10-17T17:07:35.661Z,315.58
2022-10-17T17:10:02.612Z,304.98
2022-10-17T17:12:29.628Z,298.35
2022-10-17T17:14:56.552Z,294.58
2022-10-17T17:17:37.218Z,280.88
2022-10-17T17:20:10.071Z,291.10
2022-10-17T17:22:36.712Z,285.58
2022-10-17T17:25:03.453Z,288.38
2022-10-17T17:27:30.605Z,282.63
2022-10-17T17:29:57.610Z,299.58
2022-10-17T17:32:24.246Z,292.38
2022-10-17T17:34:50.893Z,304.75
2022-10-17T17:37:17.655Z,287.88
2022-10-17T17:39:44.305Z,287.50
2022-10-17T17:42:10.984Z,292.05
2022-10-17T17:44:37.720Z,305.80
2022-10-17T17:47:04.421Z,294.58
2022-10-17T17:49:30.977Z,307.52
2022-10-17T17:52:00.005Z,301.60
2022-10-17T17:54:31.614Z,322.63
2022-10-17T17:56:58.456Z,300.10
2022-10-17T17:59:26.249Z,313.23
2022-10-17T18:01:53.280Z,280.90
2022-10-17T18:04:19.983Z,308.42
2022-10-17T18:06:46.770Z,304.98
2022-10-17T18:09:13.350Z,300.77
2022-10-17T18:11:40.030Z,288.77
2022-10-17T18:14:10.361Z,287.35
2022-10-17T18:16:37.533Z,305.92
2022-10-17T18:19:07.294Z,319.90
2022-10-17T18:21:35.330Z,308.80
2022-10-17T18:24:02.593Z,315.98
2022-10-17T18:26:29.240Z,328.00
2022-10-17T18:28:56.656Z,324.88
2022-10-17T18:31:28.281Z,336.23
2022-10-17T18:33:56.936Z,341.08
2022-10-17T18:36:26.044Z,311.17
2022-10-17T18:38:53.442Z,315.08
2022-10-17T18:41:21.844Z,331.10
2022-10-17T18:43:49.475Z,331.15
2022-10-17T18:46:18.338Z,312.85
2022-10-17T18:48:46.462Z,303.45
2022-10-17T18:51:18.964Z,305.27
2022-10-17T18:53:48.062Z,313.38
2022-10-17T18:56:15.113Z,321.75
2022-10-17T18:58:42.315Z,322.08
2022-10-17T19:01:17.618Z,322.42
2022-10-17T19:03:46.958Z,313.38
2022-10-17T19:06:15.909Z,303.13
2022-10-17T19:08:43.490Z,322.03
2022-10-17T19:11:15.823Z,318.38
2022-10-17T19:13:43.655Z,308.75
2022-10-17T19:16:19.451Z,310.27
2022-10-17T19:18:51.248Z,314.13
2022-10-17T19:21:21.752Z,331.87
2022-10-17T19:23:53.541Z,311.27
2022-10-17T19:26:21.407Z,317.88
2022-10-17T19:28:48.442Z,319.52
2022-10-17T19:31:17.939Z,318.67
2022-10-17T19:33:45.233Z,328.73
2022-10-17T19:36:13.253Z,323.92
2022-10-17T19:38:39.978Z,324.58
2022-10-17T19:41:08.232Z,353.88
2022-10-17T19:43:39.034Z,339.48
2022-10-17T19:46:08.317Z,332.67
2022-10-17T19:48:39.200Z,329.70
2022-10-17T19:51:07.750Z,367.10
2022-10-17T19:53:35.156Z,347.92
2022-10-17T19:56:02.414Z,339.30
2022-10-17T19:58:29.210Z,342.27
2022-10-17T20:00:58.572Z,328.95
2022-10-17T20:03:25.462Z,342.58
2022-10-17T20:05:52.192Z,361.17
2022-10-17T20:08:19.159Z,347.88
2022-10-17T20:10:46.331Z,352.85
2022-10-17T20:13:14.110Z,365.45
2022-10-17T20:15:40.936Z,352.80
2022-10-17T20:18:08.223Z,343.10
2022-10-17T20:20:35.845Z,343.50
2022-10-17T20:23:03.439Z,347.43
2022-10-17T20:25:30.561Z,354.95
2022-10-17T20:27:57.187Z,350.07
2022-10-17T20:30:23.861Z,340.75
2022-10-17T20:32:55.125Z,353.67
2022-10-17T20:35:22.215Z,357.25
2022-10-17T20:37:49.418Z,348.67
2022-10-17T20:40:34.033Z,324.52
2022-10-17T20:43:01.857Z,346.25
2022-10-17T20:45:43.617Z,321.15
2022-10-17T20:48:16.574Z,315.30
2022-10-17T20:50:44.081Z,328.33
2022-10-17T20:53:35.396Z,334.30
2022-10-17T20:56:04.542Z,332.10
2022-10-17T20:58:31.502Z,343.13
2022-10-17T21:00:58.175Z,338.65
2022-10-17T21:03:26.137Z,324.25
2022-10-17T21:05:52.743Z,343.95
2022-10-17T21:08:19.410Z,336.42
2022-10-17T21:10:46.069Z,356.95
2022-10-17T21:13:12.751Z,362.77
2022-10-17T21:15:39.303Z,432.08
2022-10-17T21:18:05.962Z,382.67
2022-10-17T21:20:32.538Z,393.55
2022-10-17T21:23:00.547Z,390.73
2022-10-17T21:25:27.323Z,422.83
2022-10-17T21:27:54.099Z,435.60
2022-10-17T21:30:21.841Z,405.52
2022-10-17T21:32:53.984Z,449.45
2022-10-17T21:35:21.001Z,425.38
2022-10-17T21:37:47.653Z,438.02
2022-10-17T21:40:14.586Z,397.63
2022-10-17T21:42:41.308Z,404.67
2022-10-17T21:45:15.168Z,417.17
2022-10-17T21:47:54.943Z,419.90
2022-10-17T21:50:29.626Z,412.15
2022-10-17T21:52:58.130Z,404.83
2022-10-17T21:55:24.822Z,384.98
2022-10-17T21:57:53.220Z,405.33
2022-10-17T22:00:19.853Z,372.20
2022-10-17T22:02:46.427Z,425.17
2022-10-17T22:05:13.103Z,418.83
2022-10-17T22:07:39.838Z,421.63
2022-10-17T22:10:07.000Z,397.17
2022-10-17T22:12:33.742Z,414.20
2022-10-17T22:15:00.565Z,391.70
2022-10-17T22:17:27.461Z,394.08
2022-10-17T22:19:54.295Z,378.52
2022-10-17T22:22:21.050Z,417.70
2022-10-17T22:24:47.600Z,372.50
2022-10-17T22:27:14.165Z,394.63
2022-10-17T22:29:40.787Z,372.00
2022-10-17T22:32:07.395Z,385.30
2022-10-17T22:34:33.966Z,398.52
2022-10-17T22:37:01.055Z,405.57
2022-10-17T22:39:27.619Z,385.85
2022-10-17T22:41:54.227Z,369.10
2022-10-17T22:44:20.907Z,378.33
2022-10-17T22:46:47.710Z,381.85
2022-10-17T22:49:14.384Z,399.73
2022-10-17T22:51:41.043Z,401.30
2022-10-17T22:54:07.801Z,379.10
2022-10-17T22:56:34.438Z,385.53
2022-10-17T22:59:02.177Z,367.98
2022-10-17T23:01:28.936Z,352.20
2022-10-17T23:03:55.558Z,355.48
2022-10-17T23:06:24.060Z,390.58
2022-10-17T23:08:50.804Z,370.65
2022-10-17T23:11:18.088Z,389.75
2022-10-17T23:13:44.748Z,363.50
2022-10-17T23:16:11.419Z,371.10
2022-10-17T23:18:38.801Z,369.20
2022-10-17T23:21:06.525Z,390.95
2022-10-17T23:23:33.488Z,362.95
2022-10-17T23:26:09.828Z,374.35
2022-10-17T23:28:36.803Z,399.77
2022-10-17T23:31:18.632Z,373.13
2022-10-17T23:33:46.909Z,365.00
2022-10-17T23:36:15.047Z,365.95
2022-10-17T23:38:43.691Z,367.80
2022-10-17T23:41:11.112Z,371.80
2022-10-17T23:43:37.806Z,365.08
2022-10-17T23:46:05.722Z,368.92
2022-10-17T23:48:32.851Z,357.35
2022-10-17T23:51:02.267Z,363.50
2022-10-17T23:53:28.921Z,368.42
2022-10-17T23:55:55.682Z,375.67
2022-10-17T23:58:22.574Z,368.00
